createdAt,value
2022-10-08T00:01:37.202Z,99.90
2022-10-08T00:04:04.536Z,99.90
2022-10-08T00:06:33.221Z,99.90
2022-10-08T00:09:06.821Z,99.90
2022-10-08T00:11:35.446Z,99.90
2022-10-08T00:14:03.221Z,99.90
2022-10-08T00:16:36.704Z,99.90
2022-10-08T00:19:13.786Z,99.90
2022-10-08T00:21:44.088Z,99.90
2022-10-08T00:24:17.472Z,99.90
2022-10-08T00:26:45.401Z,99.90
2022-10-08T00:29:15.965Z,99.90
2022-10-08T00:31:46.031Z,99.90
2022-10-08T00:34:19.991Z,99.90
2022-10-08T00:36:50.535Z,99.90
2022-10-08T00:39:20.331Z,99.90
2022-10-08T00:41:52.451Z,99.90
2022-10-08T00:44:51.603Z,99.90
2022-10-08T00:47:33.932Z,99.90
2022-10-08T00:50:21.352Z,99.90
2022-10-08T00:52:50.793Z,99.90
2022-10-08T00:55:20.804Z,99.90
2022-10-08T00:57:48.932Z,99.90
2022-10-08T01:00:21.082Z,99.90
2022-10-08T01:02:49.061Z,99.90
2022-10-08T01:05:20.049Z,99.90
2022-10-08T01:07:56.321Z,99.90
2022-10-08T01:10:53.881Z,99.90
2022-10-08T01:13:52.832Z,99.90
2022-10-08T01:16:45.101Z,99.90
2022-10-08T01:19:31.383Z,99.90
2022-10-08T01:22:16.857Z,99.90
2022-10-08T01:25:09.904Z,99.90
2022-10-08T01:27:54.432Z,99.90
2022-10-08T01:30:22.562Z,99.90
2022-10-08T01:32:57.062Z,99.90
2022-10-08T01:35:30.932Z,99.90
2022-10-08T01:38:05.102Z,99.90
2022-10-08T01:40:36.811Z,99.90
2022-10-08T01:43:08.823Z,99.90
2022-10-08T01:45:59.335Z,99.90
2022-10-08T01:48:34.241Z,99.90
2022-10-08T01:51:15.241Z,99.90
2022-10-08T01:53:46.981Z,99.90
2022-10-08T01:56:20.071Z,99.90
2022-10-08T01:58:56.391Z,99.90
2022-10-08T02:01:42.013Z,99.90
2022-10-08T02:04:27.671Z,99.90
2022-10-08T02:06:58.091Z,99.90
2022-10-08T02:09:27.881Z,99.90
2022-10-08T02:11:55.511Z,99.90
2022-10-08T02:14:26.083Z,99.90
2022-10-08T02:17:05.582Z,99.90
2022-10-08T02:20:05.961Z,99.90
2022-10-08T02:22:37.911Z,99.90
2022-10-08T02:25:16.723Z,99.90
2022-10-08T02:28:18.926Z,99.90
2022-10-08T02:31:03.263Z,99.90
2022-10-08T02:34:14.671Z,99.90
2022-10-08T02:36:45.662Z,99.90
2022-10-08T02:39:15.431Z,99.90
2022-10-08T02:41:52.752Z,99.90
2022-10-08T02:44:41.832Z,99.90
2022-10-08T02:47:15.076Z,99.90
2022-10-08T02:49:47.271Z,99.90
2022-10-08T02:52:17.361Z,99.90
2022-10-08T02:54:46.545Z,99.90
2022-10-08T02:57:20.021Z,99.90
2022-10-08T02:59:48.612Z,99.90
2022-10-08T03:02:47.439Z,99.90
2022-10-08T03:05:18.901Z,99.90
2022-10-08T03:07:48.713Z,99.90
2022-10-08T03:10:16.382Z,99.90
2022-10-08T03:12:43.933Z,99.90
2022-10-08T03:15:11.961Z,99.90
2022-10-08T03:17:45.131Z,99.90
2022-10-08T03:20:13.573Z,99.90
2022-10-08T03:22:40.961Z,99.90
2022-10-08T03:25:08.552Z,99.90
2022-10-08T03:27:35.982Z,99.90
2022-10-08T03:30:04.890Z,99.90
2022-10-08T03:32:32.133Z,99.90
2022-10-08T03:34:59.382Z,99.90
2022-10-08T03:37:26.651Z,99.90
2022-10-08T03:39:54.095Z,99.90
2022-10-08T03:42:21.423Z,99.90
2022-10-08T03:44:48.672Z,99.90
2022-10-08T03:47:15.903Z,99.90
2022-10-08T03:49:43.216Z,99.90
2022-10-08T03:52:10.522Z,99.90
2022-10-08T03:54:38.382Z,99.90
2022-10-08T03:57:05.725Z,99.90
2022-10-08T03:59:33.060Z,99.90
2022-10-08T04:02:00.491Z,99.90
2022-10-08T04:04:27.813Z,99.90
2022-10-08T04:06:55.002Z,99.90
2022-10-08T04:09:22.201Z,99.90
2022-10-08T04:11:49.362Z,99.90
2022-10-08T04:14:16.662Z,99.90
2022-10-08T04:16:44.032Z,99.90
2022-10-08T04:19:12.433Z,99.90
2022-10-08T04:21:39.804Z,99.90
2022-10-08T04:24:07.522Z,99.90
2022-10-08T04:26:34.721Z,99.90
2022-10-08T04:29:02.161Z,99.90
2022-10-08T04:31:29.458Z,99.90
2022-10-08T04:33:57.043Z,99.90
2022-10-08T04:36:25.445Z,99.90
2022-10-08T04:38:52.942Z,99.90
2022-10-08T04:41:25.386Z,99.90
2022-10-08T04:43:54.721Z,99.90
2022-10-08T04:46:22.865Z,99.90
2022-10-08T04:48:53.152Z,99.90
2022-10-08T04:51:22.972Z,99.90
2022-10-08T04:53:51.141Z,99.90
2022-10-08T04:56:21.811Z,99.90
2022-10-08T04:58:49.611Z,99.90
2022-10-08T05:01:18.866Z,99.90
2022-10-08T05:03:48.551Z,99.90
2022-10-08T05:06:17.372Z,99.90
2022-10-08T05:08:45.641Z,99.90
2022-10-08T05:11:14.082Z,99.90
2022-10-08T05:13:41.924Z,99.90
2022-10-08T05:16:13.949Z,99.90
2022-10-08T05:18:42.203Z,99.90
2022-10-08T05:21:17.793Z,99.90
2022-10-08T05:23:45.164Z,99.90
2022-10-08T05:26:28.553Z,99.90
2022-10-08T05:29:07.824Z,99.90
2022-10-08T05:31:37.535Z,99.90
2022-10-08T05:34:05.064Z,99.90
2022-10-08T05:36:34.032Z,99.90
2022-10-08T05:39:03.582Z,99.90
2022-10-08T05:41:33.473Z,99.90
2022-10-08T05:44:02.356Z,99.90
2022-10-08T05:46:31.356Z,99.90
2022-10-08T05:49:00.903Z,99.90
2022-10-08T05:51:29.672Z,99.90
2022-10-08T05:53:58.833Z,99.90
2022-10-08T05:56:27.043Z,99.90
2022-10-08T05:58:54.800Z,99.90
2022-10-08T06:01:24.896Z,99.90
2022-10-08T06:03:57.772Z,99.90
2022-10-08T06:06:25.682Z,99.90
2022-10-08T06:08:58.734Z,99.90
2022-10-08T06:11:27.219Z,99.90
2022-10-08T06:13:55.903Z,99.90
2022-10-08T06:16:24.155Z,99.90
2022-10-08T06:18:51.501Z,99.90
2022-10-08T06:21:21.831Z,99.90
2022-10-08T06:23:57.363Z,99.90
2022-10-08T06:26:30.507Z,99.90
2022-10-08T06:29:00.441Z,99.90
2022-10-08T06:31:28.115Z,99.90
2022-10-08T06:33:59.023Z,99.90
2022-10-08T06:36:28.017Z,99.90
2022-10-08T06:39:00.531Z,99.90
2022-10-08T06:41:30.613Z,99.90
2022-10-08T06:43:57.743Z,99.90
2022-10-08T06:46:24.969Z,99.90
2022-10-08T06:48:52.241Z,99.90
2022-10-08T06:51:20.071Z,99.90
2022-10-08T06:53:53.944Z,99.90
2022-10-08T06:56:21.500Z,99.90
2022-10-08T06:58:48.841Z,99.90
2022-10-08T07:01:31.873Z,99.90
2022-10-08T07:04:00.962Z,99.90
2022-10-08T07:06:28.261Z,99.90
2022-10-08T07:08:57.455Z,99.90
2022-10-08T07:11:25.867Z,99.90
2022-10-08T07:13:54.930Z,99.90
2022-10-08T07:16:23.784Z,99.90
2022-10-08T07:18:52.463Z,99.90
2022-10-08T07:21:22.136Z,99.90
2022-10-08T07:23:49.901Z,99.90
2022-10-08T07:26:22.233Z,99.90
2022-10-08T07:28:55.500Z,99.90
2022-10-08T07:31:29.927Z,99.90
2022-10-08T07:34:02.051Z,99.90
2022-10-08T07:36:30.303Z,99.90
2022-10-08T07:39:02.321Z,99.90
2022-10-08T07:41:32.621Z,99.90
2022-10-08T07:44:01.730Z,99.90
2022-10-08T07:46:42.144Z,99.90
2022-10-08T07:49:09.930Z,99.90
2022-10-08T07:51:37.162Z,99.90
2022-10-08T07:54:06.690Z,99.90
2022-10-08T07:56:34.676Z,99.90
2022-10-08T07:59:02.903Z,99.90
2022-10-08T08:01:31.569Z,99.90
2022-10-08T08:04:02.348Z,99.90
2022-10-08T08:06:31.202Z,99.90
2022-10-08T08:09:01.043Z,99.90
2022-10-08T08:11:28.971Z,99.90
2022-10-08T08:13:56.560Z,99.90
2022-10-08T08:16:26.715Z,99.90
2022-10-08T08:18:56.380Z,99.90
2022-10-08T08:21:27.442Z,99.90
2022-10-08T08:23:56.569Z,99.90
2022-10-08T08:26:29.292Z,99.90
2022-10-08T08:31:43.611Z,99.90
2022-10-08T08:34:22.670Z,99.90
2022-10-08T08:36:51.501Z,99.90
2022-10-08T08:42:42.301Z,99.90
2022-10-08T08:45:45.746Z,99.90
2022-10-08T08:48:24.341Z,99.90
2022-10-08T08:53:39.861Z,99.90
2022-10-08T08:56:13.031Z,99.90
2022-10-08T08:58:58.748Z,99.90
2022-10-08T09:01:40.539Z,99.90
2022-10-08T09:04:26.324Z,99.90
2022-10-08T09:06:56.450Z,99.90
2022-10-08T09:09:26.841Z,99.90
2022-10-08T09:11:55.405Z,99.90
2022-10-08T09:14:32.530Z,99.90
2022-10-08T09:17:04.907Z,99.90
2022-10-08T09:19:32.251Z,99.90
2022-10-08T09:21:59.430Z,99.80
2022-10-08T09:24:29.810Z,99.30
2022-10-08T09:26:57.321Z,98.90
2022-10-08T09:29:33.960Z,98.20
2022-10-08T09:32:01.218Z,97.60
2022-10-08T09:34:28.461Z,97.50
2022-10-08T09:37:05.064Z,98.10
2022-10-08T09:39:35.363Z,97.30
2022-10-08T09:42:08.626Z,96.70
2022-10-08T09:44:48.801Z,96.20
2022-10-08T09:47:21.402Z,95.50
2022-10-08T09:50:27.181Z,95.50
2022-10-08T09:52:56.321Z,95.70
2022-10-08T09:55:31.952Z,95.50
2022-10-08T09:58:09.110Z,95.90
2022-10-08T10:00:39.704Z,94.90
2022-10-08T10:03:15.052Z,95.30
2022-10-08T10:05:42.421Z,94.30
2022-10-08T10:08:43.529Z,94.60
2022-10-08T10:11:20.000Z,94.00
2022-10-08T10:13:50.739Z,93.70
2022-10-08T10:16:25.818Z,93.30
2022-10-08T10:19:03.897Z,93.60
2022-10-08T10:21:59.963Z,94.30
2022-10-08T10:24:42.821Z,92.80
2022-10-08T10:27:15.761Z,93.00
2022-10-08T10:29:51.580Z,93.60
2022-10-08T10:35:23.222Z,93.90
2022-10-08T10:37:57.332Z,93.40
2022-10-08T10:40:31.898Z,93.40
2022-10-08T10:43:18.031Z,92.80
2022-10-08T10:45:52.260Z,92.30
2022-10-08T10:48:19.612Z,93.20
2022-10-08T10:50:55.803Z,92.40
2022-10-08T10:53:33.353Z,93.00
2022-10-08T10:56:21.587Z,92.40
2022-10-08T10:59:14.882Z,91.70
2022-10-08T11:01:51.251Z,91.30
2022-10-08T11:04:27.381Z,92.20
2022-10-08T11:07:23.682Z,92.10
2022-10-08T11:10:13.600Z,91.30
2022-10-08T11:12:52.003Z,92.00
2022-10-08T11:15:21.884Z,92.20
2022-10-08T11:18:19.072Z,91.70
2022-10-08T11:21:01.081Z,91.40
2022-10-08T11:23:53.622Z,91.00
2022-10-08T11:26:37.642Z,91.50
2022-10-08T11:29:22.536Z,90.60
2022-10-08T11:31:51.847Z,90.80
2022-10-08T11:34:33.222Z,90.70
2022-10-08T11:37:26.261Z,91.00
2022-10-08T11:40:02.206Z,90.70
2022-10-08T11:42:48.256Z,91.60
2022-10-08T11:45:31.373Z,90.70
2022-10-08T11:48:32.172Z,91.60
2022-10-08T11:51:21.040Z,90.70
2022-10-08T11:54:38.402Z,90.20
2022-10-08T11:58:06.121Z,90.00
2022-10-08T12:00:42.043Z,90.00
2022-10-08T12:03:30.584Z,89.10
2022-10-08T12:06:17.622Z,89.50
2022-10-08T12:08:54.972Z,89.30
2022-10-08T12:11:40.506Z,88.00
2022-10-08T12:14:14.623Z,88.60
2022-10-08T12:16:57.116Z,89.00
2022-10-08T12:19:34.000Z,86.00
2022-10-08T12:22:07.190Z,85.00
2022-10-08T12:24:56.153Z,86.40
2022-10-08T12:27:31.754Z,87.50
2022-10-08T12:30:07.825Z,87.80
2022-10-08T12:32:43.642Z,86.50
2022-10-08T12:35:34.662Z,87.70
2022-10-08T12:38:13.846Z,87.30
2022-10-08T12:40:45.094Z,87.70
2022-10-08T12:43:24.712Z,89.20
2022-10-08T12:46:02.822Z,86.80
2022-10-08T12:48:53.909Z,86.10
2022-10-08T12:51:48.742Z,85.40
2022-10-08T12:54:34.691Z,86.40
2022-10-08T12:57:11.509Z,84.40
2022-10-08T12:59:41.734Z,83.90
2022-10-08T13:02:29.622Z,86.40
2022-10-08T13:04:56.804Z,84.70
2022-10-08T13:07:29.413Z,86.80
2022-10-08T13:09:59.372Z,87.90
2022-10-08T13:12:27.353Z,86.50
2022-10-08T13:15:05.492Z,84.10
2022-10-08T13:17:35.802Z,83.20
2022-10-08T13:20:10.830Z,83.40
2022-10-08T13:22:38.164Z,85.90
2022-10-08T13:25:06.033Z,84.50
2022-10-08T13:27:34.362Z,84.20
2022-10-08T13:30:30.606Z,83.70
2022-10-08T13:33:19.762Z,83.50
2022-10-08T13:35:55.929Z,81.60
2022-10-08T13:38:31.855Z,79.80
2022-10-08T13:41:04.104Z,81.50
2022-10-08T13:43:33.323Z,83.10
2022-10-08T13:46:00.962Z,84.40
2022-10-08T13:48:28.303Z,84.20
2022-10-08T13:50:57.183Z,83.10
2022-10-08T13:53:26.842Z,83.10
2022-10-08T13:55:54.202Z,82.10
2022-10-08T13:58:21.742Z,80.00
2022-10-08T14:00:49.231Z,81.30
2022-10-08T14:03:16.852Z,83.50
2022-10-08T14:05:46.577Z,83.00
2022-10-08T14:08:25.606Z,83.40
2022-10-08T14:10:57.862Z,82.10
2022-10-08T14:13:25.610Z,83.60
2022-10-08T14:15:53.132Z,82.70
2022-10-08T14:18:20.605Z,81.00
2022-10-08T14:20:50.743Z,81.00
2022-10-08T14:23:19.134Z,80.50
2022-10-08T14:25:46.593Z,79.50
2022-10-08T14:28:13.838Z,80.60
2022-10-08T14:30:41.083Z,82.50
2022-10-08T14:33:11.396Z,82.20
2022-10-08T14:35:39.493Z,82.40
2022-10-08T14:38:06.853Z,82.10
2022-10-08T14:40:34.366Z,82.90
2022-10-08T14:43:01.591Z,83.90
2022-10-08T14:45:28.924Z,82.30
2022-10-08T14:47:56.185Z,81.90
2022-10-08T14:50:23.693Z,82.70
2022-10-08T14:52:51.719Z,84.50
2022-10-08T14:55:19.396Z,82.80
2022-10-08T14:57:46.745Z,82.90
2022-10-08T15:00:14.547Z,83.80
2022-10-08T15:02:41.763Z,84.10
2022-10-08T15:05:09.159Z,84.20
2022-10-08T15:07:36.373Z,83.70
2022-10-08T15:10:03.812Z,85.20
2022-10-08T15:12:31.023Z,84.90
2022-10-08T15:14:58.382Z,83.80
2022-10-08T15:17:25.652Z,84.00
2022-10-08T15:19:53.233Z,84.20
2022-10-08T15:22:29.522Z,84.90
2022-10-08T15:24:56.743Z,83.60
2022-10-08T15:27:23.964Z,84.40
2022-10-08T15:29:51.411Z,84.50
2022-10-08T15:32:18.662Z,83.70
2022-10-08T15:34:45.944Z,84.00
2022-10-08T15:37:13.343Z,84.50
2022-10-08T15:39:40.683Z,84.50
2022-10-08T15:42:09.293Z,85.10
2022-10-08T15:44:36.623Z,86.20
2022-10-08T15:47:07.793Z,86.60
2022-10-08T15:49:38.852Z,86.70
2022-10-08T15:52:08.825Z,87.20
2022-10-08T15:54:36.962Z,86.30
2022-10-08T15:57:05.472Z,87.60
2022-10-08T15:59:33.351Z,87.40
2022-10-08T16:02:00.656Z,88.10
2022-10-08T16:04:27.982Z,88.20
2022-10-08T16:06:55.684Z,89.30
2022-10-08T16:09:23.574Z,89.80
2022-10-08T16:11:51.904Z,89.60
2022-10-08T16:14:21.342Z,88.90
2022-10-08T16:16:49.489Z,88.90
2022-10-08T16:19:22.627Z,89.50
2022-10-08T16:21:51.843Z,89.90
2022-10-08T16:24:19.181Z,90.30
2022-10-08T16:26:47.272Z,90.60
2022-10-08T16:29:16.473Z,91.00
2022-10-08T16:31:44.993Z,91.10
2022-10-08T16:34:18.355Z,91.10
2022-10-08T16:36:48.206Z,91.50
2022-10-08T16:39:21.209Z,91.50
2022-10-08T16:41:49.387Z,92.00
2022-10-08T16:44:18.857Z,92.10
2022-10-08T16:46:50.747Z,92.40
2022-10-08T16:49:24.569Z,92.40
2022-10-08T16:51:58.333Z,92.70
2022-10-08T16:54:26.133Z,92.70
2022-10-08T16:56:53.297Z,92.90
2022-10-08T16:59:23.454Z,93.10
2022-10-08T17:01:53.764Z,93.30
2022-10-08T17:04:23.659Z,93.40
2022-10-08T17:06:52.123Z,93.60
2022-10-08T17:09:20.537Z,93.80
2022-10-08T17:11:48.093Z,94.20
2022-10-08T17:14:15.684Z,94.30
2022-10-08T17:16:45.166Z,94.40
2022-10-08T17:19:12.832Z,94.70
2022-10-08T17:21:40.572Z,95.10
2022-10-08T17:24:09.803Z,95.40
2022-10-08T17:26:37.083Z,95.70
2022-10-08T17:29:10.662Z,95.90
2022-10-08T17:31:38.491Z,96.20
2022-10-08T17:34:06.592Z,96.30
2022-10-08T17:36:36.586Z,96.70
2022-10-08T17:39:07.614Z,96.90
2022-10-08T17:41:37.034Z,97.00
2022-10-08T17:44:07.022Z,97.30
2022-10-08T17:46:46.243Z,97.60
2022-10-08T17:49:16.132Z,97.90
2022-10-08T17:51:43.833Z,98.00
2022-10-08T17:54:17.225Z,98.20
2022-10-08T17:56:44.945Z,98.30
2022-10-08T17:59:17.252Z,98.90
2022-10-08T18:01:45.790Z,99.20
2022-10-08T18:04:15.573Z,99.20
2022-10-08T18:06:46.213Z,99.30
2022-10-08T18:09:22.292Z,99.40
2022-10-08T18:11:53.391Z,99.60
2022-10-08T18:14:22.088Z,99.50
2022-10-08T18:16:49.474Z,99.80
2022-10-08T18:19:17.703Z,99.90
2022-10-08T18:21:45.124Z,99.90
2022-10-08T18:24:12.509Z,99.90
2022-10-08T18:26:39.851Z,99.90
2022-10-08T18:29:12.514Z,99.90
2022-10-08T18:31:42.282Z,99.90
2022-10-08T18:34:15.273Z,99.90
2022-10-08T18:36:42.888Z,99.90
2022-10-08T18:39:16.309Z,99.90
2022-10-08T18:41:46.452Z,99.90
2022-10-08T18:44:17.393Z,99.90
2022-10-08T18:46:47.584Z,99.90
2022-10-08T18:49:17.343Z,99.90
2022-10-08T18:51:44.939Z,99.90
2022-10-08T18:54:13.172Z,99.90
2022-10-08T18:56:46.302Z,99.90
2022-10-08T18:59:16.023Z,99.90
2022-10-08T19:01:46.082Z,99.90
2022-10-08T19:04:16.409Z,99.90
2022-10-08T19:06:45.111Z,99.90
2022-10-08T19:09:12.783Z,99.90
2022-10-08T19:11:46.664Z,99.90
2022-10-08T19:14:17.082Z,99.90
2022-10-08T19:16:44.912Z,99.90
2022-10-08T19:19:20.735Z,99.90
2022-10-08T19:21:48.982Z,99.90
2022-10-08T19:24:26.913Z,99.90
2022-10-08T19:26:55.343Z,99.90
2022-10-08T19:29:29.495Z,99.90
2022-10-08T19:31:57.102Z,99.90
2022-10-08T19:34:26.087Z,99.90
2022-10-08T19:36:53.592Z,99.90
2022-10-08T19:39:23.352Z,99.90
2022-10-08T19:41:50.774Z,99.90
2022-10-08T19:44:18.643Z,99.90
2022-10-08T19:46:46.475Z,99.90
2022-10-08T19:49:13.932Z,99.90
2022-10-08T19:51:42.625Z,99.90
2022-10-08T19:54:10.408Z,99.90
2022-10-08T19:56:37.923Z,99.90
2022-10-08T19:59:06.076Z,99.90
2022-10-08T20:01:36.358Z,99.90
2022-10-08T20:04:05.366Z,99.90
2022-10-08T20:06:34.733Z,99.90
2022-10-08T20:09:03.452Z,99.90
2022-10-08T20:11:32.092Z,99.90
2022-10-08T20:14:00.042Z,99.90
2022-10-08T20:16:33.222Z,99.90
2022-10-08T20:19:09.323Z,99.90
2022-10-08T20:21:38.033Z,99.90
2022-10-08T20:24:06.376Z,99.90
2022-10-08T20:26:35.823Z,99.90
2022-10-08T20:29:05.652Z,99.90
2022-10-08T20:31:54.937Z,99.90
2022-10-08T20:34:27.104Z,99.90
2022-10-08T20:36:54.962Z,99.90
2022-10-08T20:39:22.692Z,99.90
2022-10-08T20:41:50.652Z,99.90
2022-10-08T20:44:18.282Z,99.90
2022-10-08T20:46:45.631Z,99.90
2022-10-08T20:49:13.902Z,99.90
2022-10-08T20:51:42.583Z,99.90
2022-10-08T20:54:12.445Z,99.90
2022-10-08T20:56:40.679Z,99.90
2022-10-08T20:59:09.502Z,99.90
2022-10-08T21:01:38.652Z,99.90
2022-10-08T21:04:07.253Z,99.90
2022-10-08T21:06:42.914Z,99.90
2022-10-08T21:09:11.023Z,99.90
2022-10-08T21:11:39.653Z,99.90
2022-10-08T21:14:10.030Z,99.90
2022-10-08T21:16:39.648Z,99.90
2022-10-08T21:19:10.984Z,99.90
2022-10-08T21:21:39.042Z,99.90
2022-10-08T21:24:06.423Z,99.90
2022-10-08T21:26:37.374Z,99.90
2022-10-08T21:29:07.363Z,99.90
2022-10-08T21:31:37.415Z,99.90
2022-10-08T21:34:06.804Z,99.90
2022-10-08T21:36:37.013Z,99.90
2022-10-08T21:39:06.775Z,99.90
2022-10-08T21:41:36.583Z,99.90
2022-10-08T21:44:06.282Z,99.90
2022-10-08T21:46:36.460Z,99.90
2022-10-08T21:49:07.164Z,99.90
2022-10-08T21:51:35.526Z,99.90
2022-10-08T21:54:04.762Z,99.90
2022-10-08T21:56:34.424Z,99.90
2022-10-08T21:59:05.203Z,99.90
2022-10-08T22:01:32.342Z,99.90
2022-10-08T22:04:02.623Z,99.90
2022-10-08T22:06:31.987Z,99.90
2022-10-08T22:08:59.897Z,99.90
2022-10-08T22:11:27.577Z,99.90
2022-10-08T22:13:54.709Z,99.90
2022-10-08T22:16:23.190Z,99.90
2022-10-08T22:18:50.507Z,99.90
2022-10-08T22:21:23.047Z,99.90
2022-10-08T22:23:51.528Z,99.90
2022-10-08T22:26:22.648Z,99.90
2022-10-08T22:28:50.339Z,99.90
2022-10-08T22:31:19.071Z,99.90
2022-10-08T22:33:47.190Z,99.90
2022-10-08T22:36:20.597Z,99.90
2022-10-08T22:38:48.588Z,99.90
2022-10-08T22:41:19.039Z,99.90
2022-10-08T22:43:46.890Z,99.90
2022-10-08T22:46:24.467Z,99.90
2022-10-08T22:48:52.407Z,99.90
2022-10-08T22:51:24.769Z,99.90
2022-10-08T22:53:52.078Z,99.90
2022-10-08T22:56:24.787Z,99.90
2022-10-08T22:58:52.287Z,99.90
2022-10-08T23:01:24.678Z,99.90
2022-10-08T23:03:52.277Z,99.90
2022-10-08T23:06:19.468Z,99.90
2022-10-08T23:08:52.646Z,99.90
2022-10-08T23:11:19.956Z,99.90
2022-10-08T23:13:50.687Z,99.90
2022-10-08T23:16:17.957Z,99.90
2022-10-08T23:18:47.007Z,99.90
2022-10-08T23:21:16.896Z,99.90
2022-10-08T23:23:48.056Z,99.90
2022-10-08T23:26:16.316Z,99.90
2022-10-08T23:28:44.515Z,99.90
2022-10-08T23:31:15.410Z,99.90
2022-10-08T23:33:45.146Z,99.90
2022-10-08T23:36:17.876Z,99.90
2022-10-08T23:38:45.476Z,99.90
2022-10-08T23:41:13.656Z,99.90
2022-10-08T23:43:43.786Z,99.90
2022-10-08T23:46:13.358Z,99.90
2022-10-08T23:48:41.117Z,99.90
2022-10-08T23:51:10.197Z,99.90
2022-10-08T23:53:38.491Z,99.90
2022-10-08T23:56:06.377Z,99.90
2022-10-08T23:58:34.004Z,99.90
